createdAt,value
2023-04-09T00:01:29.065Z,5.72
2023-04-09T00:03:56.672Z,5.13
2023-04-09T00:06:23.931Z,6.55
2023-04-09T00:08:51.408Z,7.90
2023-04-09T00:11:18.928Z,8.65
2023-04-09T00:13:46.294Z,9.88
2023-04-09T00:16:13.328Z,6.22
2023-04-09T00:18:41.575Z,5.15
2023-04-09T00:21:08.985Z,9.82
2023-04-09T00:23:36.562Z,11.55
2023-04-09T00:26:03.959Z,5.53
2023-04-09T00:28:31.351Z,7.40
2023-04-09T00:30:58.830Z,10.55
2023-04-09T00:33:26.544Z,9.80
2023-04-09T00:35:53.849Z,18.10
2023-04-09T00:38:21.398Z,22.02
2023-04-09T00:40:50.070Z,15.63
2023-04-09T00:43:17.873Z,13.57
2023-04-09T00:45:45.570Z,21.00
2023-04-09T00:48:13.713Z,13.73
2023-04-09T00:50:41.759Z,16.25
2023-04-09T00:53:09.232Z,12.88
2023-04-09T00:55:36.910Z,8.05
2023-04-09T00:58:04.321Z,11.23
2023-04-09T01:00:32.073Z,8.48
2023-04-09T01:02:59.242Z,13.73
2023-04-09T01:06:10.341Z,8.13
2023-04-09T01:08:58.569Z,7.03
2023-04-09T01:11:49.345Z,9.10
2023-04-09T01:14:54.115Z,14.13
2023-04-09T01:17:46.864Z,21.98
2023-04-09T01:20:37.364Z,14.85
2023-04-09T01:23:10.463Z,35.53
2023-04-09T01:25:59.254Z,28.70
2023-04-09T01:28:45.261Z,12.43
2023-04-09T01:31:18.659Z,11.77
2023-04-09T01:33:46.132Z,8.65
2023-04-09T01:36:13.553Z,7.53
2023-04-09T01:38:42.624Z,11.15
2023-04-09T01:41:23.706Z,13.18
2023-04-09T01:43:51.043Z,11.68
2023-04-09T01:46:18.930Z,12.18
2023-04-09T01:48:46.517Z,9.25
2023-04-09T01:51:14.009Z,11.05
2023-04-09T01:53:42.003Z,14.02
2023-04-09T01:56:09.419Z,13.73
2023-04-09T01:58:36.762Z,10.50
2023-04-09T02:01:09.462Z,7.03
2023-04-09T02:03:40.003Z,8.98
2023-04-09T02:06:23.965Z,7.70
2023-04-09T02:08:51.550Z,6.78
2023-04-09T02:11:19.117Z,8.00
2023-04-09T02:13:46.183Z,12.77
2023-04-09T02:16:13.783Z,9.45
2023-04-09T02:18:41.107Z,15.73
2023-04-09T02:21:08.538Z,9.98
2023-04-09T02:23:35.970Z,8.85
2023-04-09T02:26:03.023Z,5.45
2023-04-09T02:28:30.897Z,13.57
2023-04-09T02:30:58.365Z,11.15
2023-04-09T02:33:25.829Z,17.23
2023-04-09T02:35:53.131Z,13.02
2023-04-09T02:38:20.919Z,8.02
2023-04-09T02:40:48.023Z,10.63
2023-04-09T02:43:15.594Z,19.35
2023-04-09T02:45:42.978Z,12.32
2023-04-09T02:48:10.359Z,12.25
2023-04-09T02:50:37.942Z,10.32
2023-04-09T02:53:05.336Z,15.80
2023-04-09T02:55:32.451Z,18.08
2023-04-09T02:57:59.592Z,10.27
2023-04-09T03:00:27.040Z,19.30
2023-04-09T03:02:55.641Z,11.13
2023-04-09T03:05:23.455Z,17.10
2023-04-09T03:07:50.801Z,16.95
2023-04-09T03:10:18.305Z,13.23
2023-04-09T03:12:47.911Z,9.13
2023-04-09T03:15:15.610Z,15.38
2023-04-09T03:17:42.938Z,17.23
2023-04-09T03:20:10.972Z,14.30
2023-04-09T03:26:58.219Z,12.27
2023-04-09T03:29:26.552Z,16.05
2023-04-09T03:31:53.930Z,8.95
2023-04-09T03:34:21.293Z,18.27
2023-04-09T03:36:53.029Z,15.52
2023-04-09T03:39:30.683Z,14.95
2023-04-09T03:41:59.026Z,20.23
2023-04-09T03:44:30.065Z,15.23
2023-04-09T03:47:10.140Z,24.58
2023-04-09T03:49:39.259Z,22.48
2023-04-09T03:52:17.897Z,16.38
2023-04-09T03:54:51.779Z,19.90
2023-04-09T03:57:23.069Z,15.70
2023-04-09T03:59:52.895Z,25.00
2023-04-09T04:02:22.922Z,16.20
2023-04-09T04:04:58.477Z,16.75
2023-04-09T04:07:30.430Z,14.23
2023-04-09T04:10:07.307Z,13.13
2023-04-09T04:12:34.401Z,9.43
2023-04-09T04:15:09.316Z,8.25
2023-04-09T04:17:47.738Z,13.30
2023-04-09T04:20:26.309Z,19.33
2023-04-09T04:23:01.872Z,22.45
2023-04-09T04:25:30.469Z,7.03
2023-04-09T04:27:58.108Z,13.85
2023-04-09T04:30:35.346Z,12.50
2023-04-09T04:33:06.406Z,18.48
2023-04-09T04:35:41.671Z,8.98
2023-04-09T04:38:16.441Z,13.43
2023-04-09T04:40:43.620Z,17.77
2023-04-09T04:43:11.051Z,16.60
2023-04-09T04:45:38.644Z,17.27
2023-04-09T04:48:10.590Z,25.73
2023-04-09T04:50:37.973Z,33.33
2023-04-09T04:53:08.372Z,12.75
2023-04-09T04:55:45.196Z,14.05
2023-04-09T04:58:15.157Z,8.45
2023-04-09T05:00:50.057Z,11.35
2023-04-09T05:03:17.785Z,10.18
2023-04-09T05:05:53.701Z,11.27
2023-04-09T05:08:22.592Z,12.77
2023-04-09T05:10:55.732Z,16.52
2023-04-09T05:13:26.455Z,9.60
2023-04-09T05:15:54.894Z,6.28
2023-04-09T05:18:22.007Z,8.07
2023-04-09T05:20:49.631Z,6.00
2023-04-09T05:23:18.199Z,9.00
2023-04-09T05:25:49.680Z,9.23
2023-04-09T05:28:25.556Z,15.60
2023-04-09T05:31:03.886Z,11.10
2023-04-09T05:33:37.746Z,11.27
2023-04-09T05:36:18.277Z,10.77
2023-04-09T05:38:48.465Z,20.08
2023-04-09T05:41:15.939Z,11.02
2023-04-09T05:46:29.001Z,7.03
2023-04-09T05:48:56.810Z,15.45
2023-04-09T05:51:26.494Z,17.58
2023-04-09T05:53:55.610Z,9.52
2023-04-09T05:56:23.164Z,12.27
2023-04-09T05:58:54.096Z,20.73
2023-04-09T06:01:21.636Z,8.32
2023-04-09T06:03:50.405Z,13.13
2023-04-09T06:06:18.421Z,9.07
2023-04-09T06:08:45.825Z,10.30
2023-04-09T06:11:13.779Z,5.78
2023-04-09T06:13:41.188Z,11.20
2023-04-09T06:16:08.877Z,12.20
2023-04-09T06:18:36.876Z,10.73
2023-04-09T06:21:05.114Z,10.50
2023-04-09T06:23:33.301Z,9.32
2023-04-09T06:26:00.353Z,12.52
2023-04-09T06:28:28.727Z,5.97
2023-04-09T06:30:56.269Z,8.43
2023-04-09T06:33:24.247Z,11.27
2023-04-09T06:35:51.494Z,5.70
2023-04-09T06:38:18.585Z,6.97
2023-04-09T06:40:46.105Z,6.82
2023-04-09T06:43:13.292Z,7.93
2023-04-09T06:45:48.732Z,6.40
2023-04-09T06:48:16.553Z,10.15
2023-04-09T06:50:44.442Z,6.15
2023-04-09T06:53:11.626Z,7.93
2023-04-09T06:55:38.794Z,14.90
2023-04-09T06:58:06.592Z,13.32
2023-04-09T07:00:33.933Z,21.67
2023-04-09T07:03:01.406Z,6.85
2023-04-09T07:05:28.929Z,14.65
2023-04-09T07:07:56.164Z,7.10
2023-04-09T07:10:23.530Z,6.22
2023-04-09T07:12:50.876Z,12.40
2023-04-09T07:15:18.341Z,6.95
2023-04-09T07:17:45.751Z,11.27
2023-04-09T07:20:13.488Z,9.40
2023-04-09T07:22:41.297Z,7.50
2023-04-09T07:25:09.320Z,8.57
2023-04-09T07:27:36.539Z,15.15
2023-04-09T07:30:04.437Z,12.23
2023-04-09T07:32:31.827Z,25.85
2023-04-09T07:34:59.268Z,11.40
2023-04-09T07:37:27.164Z,12.65
2023-04-09T07:39:54.923Z,7.50
2023-04-09T07:42:22.266Z,11.88
2023-04-09T07:44:49.530Z,12.63
2023-04-09T07:47:16.676Z,12.45
2023-04-09T07:49:43.974Z,15.32
2023-04-09T07:52:11.673Z,7.35
2023-04-09T07:54:39.340Z,12.85
2023-04-09T07:57:06.716Z,6.47
2023-04-09T07:59:34.948Z,8.15
2023-04-09T08:02:02.206Z,12.57
2023-04-09T08:04:30.234Z,6.28
2023-04-09T08:06:57.386Z,9.05
2023-04-09T08:09:24.816Z,9.13
2023-04-09T08:11:51.855Z,6.20
2023-04-09T08:14:19.537Z,5.28
2023-04-09T08:16:47.303Z,9.73
2023-04-09T08:19:16.454Z,7.40
2023-04-09T08:21:44.132Z,5.35
2023-04-09T08:24:11.920Z,7.00
2023-04-09T08:26:40.251Z,7.70
2023-04-09T08:29:08.050Z,14.70
2023-04-09T08:31:36.579Z,13.38
2023-04-09T08:34:04.026Z,6.57
2023-04-09T08:36:32.264Z,7.15
2023-04-09T08:39:00.396Z,15.80
2023-04-09T08:41:31.498Z,7.68
2023-04-09T08:43:59.748Z,9.43
2023-04-09T08:46:27.490Z,6.93
2023-04-09T08:48:55.344Z,7.68
2023-04-09T08:51:24.011Z,2.35
2023-04-09T08:54:04.013Z,10.43
2023-04-09T08:56:31.687Z,11.35
2023-04-09T08:58:58.958Z,12.13
2023-04-09T09:01:29.960Z,12.43
2023-04-09T09:04:00.950Z,3.60
2023-04-09T09:06:33.018Z,7.40
2023-04-09T09:09:11.059Z,8.45
2023-04-09T09:11:40.960Z,7.22
2023-04-09T09:14:15.106Z,5.82
2023-04-09T09:16:44.564Z,2.95
2023-04-09T09:19:26.997Z,11.15
2023-04-09T09:21:58.450Z,5.05
2023-04-09T09:24:26.333Z,11.18
2023-04-09T09:26:57.503Z,6.72
2023-04-09T09:29:25.751Z,12.20
2023-04-09T09:31:54.338Z,3.42
2023-04-09T09:34:22.927Z,7.60
2023-04-09T09:36:50.336Z,8.00
2023-04-09T09:39:17.530Z,3.67
2023-04-09T09:41:45.759Z,8.32
2023-04-09T09:44:13.763Z,11.30
2023-04-09T09:46:42.284Z,4.18
2023-04-09T09:49:09.764Z,7.97
2023-04-09T09:51:39.599Z,15.35
2023-04-09T09:54:08.062Z,7.10
2023-04-09T09:56:36.047Z,8.27
2023-04-09T09:59:07.414Z,3.95
2023-04-09T10:01:37.869Z,6.82
2023-04-09T10:04:06.268Z,19.73
2023-04-09T10:06:38.572Z,13.35
2023-04-09T10:09:06.836Z,4.90
2023-04-09T10:11:34.588Z,4.35
2023-04-09T10:14:01.970Z,13.68
2023-04-09T10:16:29.529Z,15.10
2023-04-09T10:18:57.489Z,9.18
2023-04-09T10:21:43.840Z,5.20
2023-04-09T10:24:10.916Z,5.63
2023-04-09T10:26:40.794Z,3.75
2023-04-09T10:29:15.615Z,3.20
2023-04-09T10:32:10.296Z,0.77
2023-04-09T10:34:42.160Z,1.27
2023-04-09T10:37:15.766Z,1.60
2023-04-09T10:39:50.658Z,3.92
2023-04-09T10:42:27.105Z,3.80
2023-04-09T10:45:10.308Z,5.28
2023-04-09T10:50:30.584Z,10.10
2023-04-09T10:53:00.032Z,1.27
2023-04-09T10:55:36.282Z,1.60
2023-04-09T11:03:09.509Z,2.63
2023-04-09T11:05:40.361Z,9.70
2023-04-09T11:08:11.972Z,5.82
2023-04-09T11:10:41.341Z,3.00
2023-04-09T11:13:13.117Z,2.13
2023-04-09T11:15:40.901Z,1.90
2023-04-09T11:18:11.849Z,2.67
2023-04-09T11:20:38.941Z,3.20
2023-04-09T11:23:06.450Z,12.35
2023-04-09T11:25:35.217Z,1.52
2023-04-09T11:28:03.984Z,3.65
2023-04-09T11:30:30.932Z,1.38
2023-04-09T11:32:58.676Z,2.55
2023-04-09T11:35:25.967Z,2.40
2023-04-09T11:37:56.114Z,0.93
2023-04-09T11:40:25.680Z,1.15
2023-04-09T11:42:54.664Z,1.58
2023-04-09T11:45:27.786Z,1.23
2023-04-09T11:47:55.227Z,2.30
2023-04-09T11:50:22.484Z,6.40
2023-04-09T11:52:50.253Z,1.92
2023-04-09T11:55:30.297Z,3.08
2023-04-09T11:58:00.512Z,0.90
2023-04-09T12:00:28.267Z,1.83
2023-04-09T12:03:01.309Z,2.97
2023-04-09T12:05:30.408Z,2.85
2023-04-09T12:07:59.943Z,0.88
2023-04-09T12:10:33.474Z,2.08
2023-04-09T12:13:08.201Z,5.65
2023-04-09T12:15:41.186Z,2.22
2023-04-09T12:18:09.585Z,7.22
2023-04-09T12:20:39.653Z,1.98
2023-04-09T12:23:07.444Z,3.03
2023-04-09T12:25:36.474Z,2.75
2023-04-09T12:28:04.694Z,4.72
2023-04-09T12:30:32.962Z,3.80
2023-04-09T12:33:00.375Z,2.95
2023-04-09T12:35:28.121Z,7.95
2023-04-09T12:37:55.214Z,3.28
2023-04-09T12:40:22.572Z,12.90
2023-04-09T12:42:50.032Z,7.38
2023-04-09T12:45:18.469Z,14.63
2023-04-09T12:47:46.104Z,7.95
2023-04-09T12:50:13.739Z,6.70
2023-04-09T12:52:41.133Z,16.85
2023-04-09T12:55:09.118Z,10.13
2023-04-09T12:57:37.841Z,12.55
2023-04-09T13:00:06.112Z,9.00
2023-04-09T13:02:34.052Z,8.30
2023-04-09T13:05:01.502Z,13.65
2023-04-09T13:07:29.525Z,16.70
2023-04-09T13:09:57.178Z,15.07
2023-04-09T13:12:24.860Z,19.52
2023-04-09T13:14:53.851Z,22.83
2023-04-09T13:17:21.132Z,29.25
2023-04-09T13:19:48.799Z,26.10
2023-04-09T13:22:16.077Z,28.00
2023-04-09T13:24:43.598Z,19.25
2023-04-09T13:27:11.274Z,26.48
2023-04-09T13:29:38.766Z,5.03
2023-04-09T13:32:10.611Z,10.45
2023-04-09T13:34:38.629Z,10.68
2023-04-09T13:37:06.089Z,13.45
2023-04-09T13:39:33.401Z,14.45
2023-04-09T13:42:05.334Z,22.98
2023-04-09T13:44:37.502Z,12.45
2023-04-09T13:47:04.918Z,24.85
2023-04-09T13:49:32.045Z,24.40
2023-04-09T13:51:59.655Z,27.25
2023-04-09T13:54:26.978Z,12.45
2023-04-09T13:56:54.664Z,12.75
2023-04-09T13:59:21.904Z,12.25
2023-04-09T14:01:49.194Z,8.07
2023-04-09T14:04:16.871Z,7.22
2023-04-09T14:06:44.218Z,7.90
2023-04-09T14:09:11.864Z,12.43
2023-04-09T14:11:38.905Z,15.73
2023-04-09T14:14:06.773Z,8.23
2023-04-09T14:16:34.259Z,9.48
2023-04-09T14:19:01.739Z,8.63
2023-04-09T14:21:28.971Z,15.25
2023-04-09T14:23:56.531Z,24.90
2023-04-09T14:26:24.320Z,7.82
2023-04-09T14:28:52.047Z,12.18
2023-04-09T14:31:22.414Z,9.68
2023-04-09T14:33:50.393Z,8.73
2023-04-09T14:36:18.071Z,19.80
2023-04-09T14:38:46.116Z,12.05
2023-04-09T14:41:13.463Z,14.48
2023-04-09T14:43:40.565Z,7.63
2023-04-09T14:46:11.444Z,10.77
2023-04-09T14:48:39.987Z,17.70
2023-04-09T14:51:11.130Z,13.13
2023-04-09T14:53:38.369Z,13.48
2023-04-09T14:56:06.455Z,16.75
2023-04-09T14:58:33.778Z,12.60
2023-04-09T15:01:01.045Z,13.00
2023-04-09T15:03:28.411Z,10.25
2023-04-09T15:05:55.795Z,10.80
2023-04-09T15:08:23.507Z,22.70
2023-04-09T15:10:51.025Z,19.73
2023-04-09T15:13:18.670Z,5.05
2023-04-09T15:15:46.108Z,23.05
2023-04-09T15:18:13.442Z,16.13
2023-04-09T15:20:42.042Z,23.33
2023-04-09T15:23:10.876Z,21.90
2023-04-09T15:25:38.738Z,28.15
2023-04-09T15:28:06.128Z,20.67
2023-04-09T15:30:35.517Z,20.13
2023-04-09T15:33:03.067Z,24.75
2023-04-09T15:35:31.429Z,28.98
2023-04-09T15:37:58.580Z,11.55
2023-04-09T15:40:25.893Z,15.70
2023-04-09T15:42:53.140Z,18.92
2023-04-09T15:45:20.439Z,15.60
2023-04-09T15:47:48.128Z,22.55
2023-04-09T15:50:15.592Z,22.33
2023-04-09T15:52:42.771Z,25.20
2023-04-09T15:55:11.010Z,16.42
2023-04-09T15:57:39.153Z,15.07
2023-04-09T16:00:10.774Z,27.63
2023-04-09T16:02:38.992Z,13.35
2023-04-09T16:05:09.344Z,31.95
2023-04-09T16:07:36.729Z,30.80
2023-04-09T16:10:04.840Z,21.63
2023-04-09T16:12:32.762Z,18.92
2023-04-09T16:15:00.388Z,27.25
2023-04-09T16:17:27.612Z,23.27
2023-04-09T16:19:55.137Z,24.40
2023-04-09T16:22:22.485Z,34.72
2023-04-09T16:24:49.666Z,21.73
2023-04-09T16:27:16.826Z,35.17
2023-04-09T16:29:44.344Z,46.25
2023-04-09T16:32:11.733Z,39.75
2023-04-09T16:34:38.713Z,39.20
2023-04-09T16:37:06.207Z,33.80
2023-04-09T16:39:33.658Z,31.55
2023-04-09T16:42:01.553Z,39.08
2023-04-09T16:44:29.081Z,30.05
2023-04-09T16:46:56.302Z,23.38
2023-04-09T16:49:23.613Z,20.20
2023-04-09T16:51:53.019Z,28.60
2023-04-09T16:54:20.849Z,20.05
2023-04-09T16:56:48.851Z,15.23
2023-04-09T16:59:18.155Z,20.38
2023-04-09T17:01:45.582Z,12.50
2023-04-09T17:04:12.842Z,22.25
2023-04-09T17:06:40.347Z,19.77
2023-04-09T17:09:07.687Z,20.13
2023-04-09T17:11:35.587Z,15.77
2023-04-09T17:14:02.950Z,15.57
2023-04-09T17:16:30.576Z,22.25
2023-04-09T17:18:57.765Z,16.45
2023-04-09T17:21:26.176Z,15.15
2023-04-09T17:23:53.521Z,12.07
2023-04-09T17:26:20.776Z,17.77
2023-04-09T17:28:48.146Z,28.05
2023-04-09T17:31:16.093Z,9.45
2023-04-09T17:33:47.708Z,10.65
2023-04-09T17:36:17.333Z,7.07
2023-04-09T17:38:45.132Z,7.70
2023-04-09T17:41:12.694Z,14.48
2023-04-09T17:43:39.995Z,12.43
2023-04-09T17:46:10.005Z,9.65
2023-04-09T17:48:37.062Z,14.80
2023-04-09T17:51:06.177Z,9.70
2023-04-09T17:53:33.760Z,15.48
2023-04-09T17:56:03.613Z,11.98
2023-04-09T17:58:31.252Z,40.63
2023-04-09T18:00:59.620Z,97.15
2023-04-09T18:03:26.964Z,89.03
2023-04-09T18:05:54.630Z,85.45
2023-04-09T18:08:22.174Z,47.38
2023-04-09T18:11:04.940Z,49.42
2023-04-09T18:13:36.354Z,39.38
2023-04-09T18:16:03.862Z,51.00
2023-04-09T18:18:31.222Z,30.38
2023-04-09T18:20:58.867Z,32.67
2023-04-09T18:23:26.765Z,17.95
2023-04-09T18:25:54.141Z,19.63
2023-04-09T18:28:21.980Z,23.58
2023-04-09T18:30:49.389Z,25.33
2023-04-09T18:33:16.638Z,38.55
2023-04-09T18:35:44.017Z,26.60
2023-04-09T18:38:11.096Z,36.15
2023-04-09T18:40:42.873Z,41.85
2023-04-09T18:43:11.305Z,29.63
2023-04-09T18:45:41.609Z,39.22
2023-04-09T18:48:09.111Z,37.75
2023-04-09T18:50:36.816Z,41.35
2023-04-09T18:53:05.318Z,33.45
2023-04-09T18:55:32.634Z,38.72
2023-04-09T18:58:00.261Z,45.13
2023-04-09T19:00:27.600Z,38.85
2023-04-09T19:02:55.100Z,37.75
2023-04-09T19:05:22.529Z,41.33
2023-04-09T19:07:49.617Z,42.70
2023-04-09T19:10:16.965Z,44.00
2023-04-09T19:12:50.666Z,39.00
2023-04-09T19:15:18.020Z,34.97
2023-04-09T19:17:45.242Z,43.95
2023-04-09T19:20:13.662Z,37.70
2023-04-09T19:22:41.125Z,32.17
2023-04-09T19:25:09.834Z,25.38
2023-04-09T19:27:38.345Z,41.35
2023-04-09T19:30:06.380Z,40.35
2023-04-09T19:32:33.961Z,37.65
2023-04-09T19:35:01.909Z,43.90
2023-04-09T19:37:30.458Z,35.53
2023-04-09T19:39:58.558Z,38.75
2023-04-09T19:42:28.679Z,34.33
2023-04-09T19:44:56.064Z,34.53
2023-04-09T19:47:23.113Z,29.52
2023-04-09T19:49:50.980Z,54.30
2023-04-09T19:52:18.031Z,58.58
2023-04-09T19:54:46.166Z,58.47
2023-04-09T19:57:15.082Z,52.00
2023-04-09T19:59:42.240Z,44.33
2023-04-09T20:02:09.292Z,42.53
2023-04-09T20:04:36.755Z,48.05
2023-04-09T20:07:04.061Z,40.47
2023-04-09T20:09:32.308Z,41.38
2023-04-09T20:12:04.144Z,43.78
2023-04-09T20:14:31.518Z,32.67
2023-04-09T20:16:59.280Z,48.55
2023-04-09T20:19:27.139Z,27.40
2023-04-09T20:21:54.764Z,31.63
2023-04-09T20:24:22.864Z,37.28
2023-04-09T20:26:50.999Z,25.15
2023-04-09T20:29:18.972Z,26.70
2023-04-09T20:31:46.314Z,29.23
2023-04-09T20:34:13.770Z,32.85
2023-04-09T20:36:43.417Z,29.98
2023-04-09T20:39:11.394Z,28.42
2023-04-09T20:41:38.727Z,26.48
2023-04-09T20:44:06.702Z,31.25
2023-04-09T20:46:34.394Z,41.80
2023-04-09T20:49:03.519Z,35.90
2023-04-09T20:51:30.546Z,35.45
2023-04-09T20:53:59.409Z,42.08
2023-04-09T20:56:26.565Z,32.38
2023-04-09T20:58:57.293Z,42.65
2023-04-09T21:01:27.097Z,36.90
2023-04-09T21:03:54.677Z,28.23
2023-04-09T21:06:22.192Z,26.20
2023-04-09T21:08:49.753Z,33.75
2023-04-09T21:11:16.911Z,45.63
2023-04-09T21:13:53.728Z,31.15
2023-04-09T21:16:22.744Z,29.48
2023-04-09T21:18:50.629Z,13.98
2023-04-09T21:21:18.553Z,16.92
2023-04-09T21:23:46.191Z,20.55
2023-04-09T21:26:14.997Z,7.57
2023-04-09T21:28:43.023Z,12.23
2023-04-09T21:31:11.324Z,8.82
2023-04-09T21:33:41.410Z,15.30
2023-04-09T21:36:08.980Z,12.70
2023-04-09T21:38:36.465Z,6.35
2023-04-09T21:41:03.784Z,11.57
2023-04-09T21:43:31.096Z,13.88
2023-04-09T21:45:58.690Z,12.07
2023-04-09T21:48:30.283Z,5.50
2023-04-09T21:51:01.164Z,13.25
2023-04-09T21:53:31.177Z,7.75
2023-04-09T21:55:58.453Z,10.88
2023-04-09T21:58:25.728Z,8.27
2023-04-09T22:00:52.961Z,17.85
2023-04-09T22:03:21.798Z,11.95
2023-04-09T22:05:49.340Z,13.70
2023-04-09T22:08:16.581Z,19.63
2023-04-09T22:10:43.905Z,5.68
2023-04-09T22:13:11.018Z,4.07
2023-04-09T22:15:38.566Z,16.90
2023-04-09T22:18:05.886Z,19.90
2023-04-09T22:20:33.496Z,12.80
2023-04-09T22:23:00.563Z,12.05
2023-04-09T22:25:34.798Z,14.95
2023-04-09T22:28:02.099Z,21.80
2023-04-09T22:30:29.919Z,16.48
2023-04-09T22:32:57.487Z,15.32
2023-04-09T22:35:24.834Z,15.93
2023-04-09T22:37:52.808Z,27.17
2023-04-09T22:40:20.051Z,18.73
2023-04-09T22:42:47.956Z,17.52
2023-04-09T22:45:15.710Z,17.20
2023-04-09T22:47:43.200Z,13.68
2023-04-09T22:50:11.322Z,15.23
2023-04-09T22:52:38.421Z,20.67
2023-04-09T22:55:06.296Z,14.52
2023-04-09T22:57:33.892Z,11.35
2023-04-09T23:00:01.409Z,9.52
2023-04-09T23:02:29.286Z,13.68
2023-04-09T23:04:56.666Z,14.75
2023-04-09T23:07:23.793Z,14.88
2023-04-09T23:09:54.873Z,10.93
2023-04-09T23:12:22.235Z,8.48
2023-04-09T23:14:49.497Z,7.38
2023-04-09T23:17:17.223Z,13.75
2023-04-09T23:19:45.201Z,5.95
2023-04-09T23:22:12.470Z,8.57
2023-04-09T23:24:39.636Z,3.00
2023-04-09T23:27:06.735Z,7.97
2023-04-09T23:29:34.540Z,6.03
2023-04-09T23:32:02.665Z,5.35
2023-04-09T23:34:30.526Z,9.45
2023-04-09T23:36:57.941Z,14.18
2023-04-09T23:39:25.303Z,11.15
2023-04-09T23:41:52.522Z,14.93
2023-04-09T23:44:19.934Z,11.73
2023-04-09T23:46:47.515Z,9.88
2023-04-09T23:49:15.908Z,19.27
2023-04-09T23:51:43.185Z,12.30
2023-04-09T23:54:10.263Z,19.45
2023-04-09T23:56:37.383Z,19.30
2023-04-09T23:59:04.667Z,8.50
